Time;durP1;ratioP1;P1;durP2;ratioP2;P2;SDS_P1;SDS_P2;PMS_P1;PMS_P2;Temp;Humidity;BMP_temperature;BMP_pressure;BME280_temperature;BME280_humidity;BME280_pressure;Samples;Min_cycle;Max_cycle;Signal;HPM_P1;HPM_P2
2023/08/04 00:01:21;;;;;;;4.35;1.55;;;18.20;99.10;;;;;;5014530;28;20046;-80
2023/08/04 00:03:47;;;;;;;6.93;1.60;;;18.20;99.20;;;;;;5013813;28;20038;-80
2023/08/04 00:06:12;;;;;;;6.43;1.42;;;18.20;99.20;;;;;;5013508;28;20042;-80
2023/08/04 00:08:38;;;;;;;4.50;1.33;;;18.20;99.30;;;;;;5014110;28;20038;-80
2023/08/04 00:11:04;;;;;;;6.47;1.75;;;18.20;99.20;;;;;;5013944;28;20125;-80
2023/08/04 00:13:31;;;;;;;5.10;1.45;;;18.20;99.10;;;;;;5013930;28;20518;-80
2023/08/04 00:16:09;;;;;;;5.70;1.58;;;18.10;99.20;;;;;;5012104;28;20042;-80
2023/08/04 00:18:36;;;;;;;8.20;1.70;;;18.10;99.30;;;;;;5014166;28;20046;-80
2023/08/04 00:21:03;;;;;;;5.32;1.40;;;18.10;99.20;;;;;;5012467;28;20042;-80
2023/08/04 00:23:29;;;;;;;6.07;1.60;;;18.10;98.90;;;;;;5012696;28;20416;-80
2023/08/04 00:25:55;;;;;;;4.97;1.50;;;18.10;98.90;;;;;;5013841;28;20042;-81
2023/08/04 00:28:22;;;;;;;5.32;1.50;;;18.10;99.20;;;;;;5014295;28;20464;-80
2023/08/04 00:30:48;;;;;;;7.05;1.80;;;18.10;99.30;;;;;;5005098;28;20050;-81
2023/08/04 00:33:13;;;;;;;5.85;1.70;;;18.00;99.50;;;;;;4990298;28;20049;-80
2023/08/04 00:35:39;;;;;;;6.60;1.65;;;18.00;99.20;;;;;;5011745;28;20437;-80
2023/08/04 00:38:05;;;;;;;7.78;2.00;;;18.00;99.40;;;;;;5013745;28;20054;-79
2023/08/04 00:40:30;;;;;;;6.45;1.80;;;18.00;99.60;;;;;;5013093;28;20042;-80
2023/08/04 00:42:56;;;;;;;9.88;1.90;;;18.00;99.30;;;;;;5012608;28;20125;-80
2023/08/04 00:45:26;;;;;;;10.88;2.05;;;17.90;99.10;;;;;;5013070;28;20140;-80
2023/08/04 00:47:55;;;;;;;3.67;1.50;;;17.90;99.30;;;;;;5012632;28;20085;-80
2023/08/04 00:50:21;;;;;;;5.00;1.30;;;17.90;99.40;;;;;;5012741;28;20149;-80
2023/08/04 00:52:48;;;;;;;7.00;1.80;;;17.90;99.50;;;;;;5012580;28;20045;-80
2023/08/04 00:55:14;;;;;;;5.72;1.63;;;17.90;99.20;;;;;;5013182;28;20072;-80
2023/08/04 00:57:40;;;;;;;5.25;1.58;;;17.90;99.10;;;;;;5013145;28;20045;-80
2023/08/04 01:00:07;;;;;;;5.38;1.50;;;17.90;99.00;;;;;;5012108;28;20045;-80
2023/08/04 01:02:33;;;;;;;7.43;1.67;;;17.90;99.20;;;;;;5013224;28;20048;-80
2023/08/04 01:05:03;;;;;;;7.80;1.80;;;17.90;99.20;;;;;;5011809;28;20088;-80
2023/08/04 01:07:35;;;;;;;5.82;1.50;;;17.80;99.00;;;;;;5011912;28;20042;-80
2023/08/04 01:10:10;;;;;;;3.15;1.27;;;17.80;99.40;;;;;;5013196;28;20046;-80
2023/08/04 01:13:05;;;;;;;4.30;1.38;;;17.80;99.20;;;;;;5013394;28;20177;-80
2023/08/04 01:15:31;;;;;;;4.80;1.40;;;17.80;98.90;;;;;;5011113;28;20048;-81
2023/08/04 01:17:58;;;;;;;5.82;1.30;;;17.80;99.10;;;;;;5013292;28;20068;-81
2023/08/04 01:20:27;;;;;;;4.50;1.33;;;17.70;99.10;;;;;;5012981;28;20050;-80
2023/08/04 01:22:56;;;;;;;3.13;1.27;;;17.80;99.70;;;;;;5012996;28;20093;-80
2023/08/04 01:25:32;;;;;;;6.13;1.00;;;17.80;99.20;;;;;;5012900;28;20042;-80
2023/08/04 01:28:00;;;;;;;4.68;1.48;;;17.80;98.90;;;;;;5012570;28;20124;-81
2023/08/04 01:30:28;;;;;;;3.92;1.30;;;17.70;99.40;;;;;;5013130;28;20104;-80
2023/08/04 01:32:57;;;;;;;4.72;1.50;;;17.70;99.70;;;;;;5013043;28;20536;-81
2023/08/04 01:35:23;;;;;;;3.97;1.25;;;17.70;99.80;;;;;;5013106;28;20050;-81
2023/08/04 01:37:48;;;;;;;4.13;1.50;;;17.70;99.80;;;;;;5012172;28;20034;-80
2023/08/04 01:40:14;;;;;;;3.83;1.10;;;17.70;99.80;;;;;;5011393;28;20049;-80
2023/08/04 01:42:40;;;;;;;3.42;1.20;;;17.70;99.90;;;;;;5012790;28;20090;-81
2023/08/04 01:45:08;;;;;;;2.83;1.02;;;17.70;99.90;;;;;;5011352;28;20061;-81
2023/08/04 01:47:33;;;;;;;3.97;1.08;;;17.70;99.70;;;;;;5012078;28;20054;-79
2023/08/04 01:50:02;;;;;;;2.53;1.13;;;17.60;99.70;;;;;;5012479;28;20177;-81
2023/08/04 01:52:31;;;;;;;3.80;1.10;;;17.70;99.80;;;;;;5012444;28;20092;-81
2023/08/04 01:54:58;;;;;;;3.35;1.00;;;17.60;99.80;;;;;;5012896;28;20045;-81
2023/08/04 01:57:24;;;;;;;4.53;1.02;;;17.60;99.50;;;;;;5012998;28;20049;-81
2023/08/04 01:59:49;;;;;;;4.28;1.10;;;17.60;99.60;;;;;;5012476;28;20537;-81
2023/08/04 02:02:15;;;;;;;3.25;0.90;;;17.60;99.20;;;;;;5012552;28;20050;-81
2023/08/04 02:04:40;;;;;;;2.08;0.90;;;17.60;98.90;;;;;;5012738;28;20038;-81
2023/08/04 02:07:06;;;;;;;3.83;1.13;;;17.60;99.10;;;;;;5012755;28;20041;-81
2023/08/04 02:09:33;;;;;;;5.97;1.00;;;17.60;99.30;;;;;;5011579;28;20050;-81
2023/08/04 02:11:59;;;;;;;4.13;0.98;;;17.50;99.10;;;;;;5012878;28;20042;-81
2023/08/04 02:14:27;;;;;;;3.15;0.88;;;17.50;99.10;;;;;;5012371;28;20061;-81
2023/08/04 02:16:54;;;;;;;4.38;1.00;;;17.50;99.00;;;;;;5015032;28;20050;-83
2023/08/04 02:19:22;;;;;;;3.30;1.00;;;17.50;99.00;;;;;;5016144;28;20049;-84
2023/08/04 02:21:48;;;;;;;1.90;0.80;;;17.40;98.90;;;;;;5015949;28;20050;-83
2023/08/04 02:24:14;;;;;;;2.10;0.80;;;17.40;98.90;;;;;;5015667;28;20038;-80
2023/08/04 02:26:39;;;;;;;3.08;0.88;;;17.40;99.10;;;;;;5013408;28;20046;-80
2023/08/04 02:29:05;;;;;;;2.38;1.00;;;17.40;99.00;;;;;;5015780;28;20042;-80
2023/08/04 02:31:32;;;;;;;3.13;1.10;;;17.40;99.20;;;;;;5015650;28;20042;-80
2023/08/04 02:33:59;;;;;;;2.20;0.90;;;17.40;99.10;;;;;;5013425;28;20046;-80
2023/08/04 02:36:27;;;;;;;3.47;0.82;;;17.40;99.20;;;;;;5014180;28;20165;-80
2023/08/04 02:38:57;;;;;;;3.72;1.02;;;17.40;99.20;;;;;;5006417;28;20045;-81
2023/08/04 02:41:23;;;;;;;4.30;0.95;;;17.40;99.40;;;;;;5008666;28;20062;-80
2023/08/04 02:43:50;;;;;;;5.22;1.25;;;17.40;99.20;;;;;;5014025;28;20121;-79
2023/08/04 02:46:20;;;;;;;4.53;1.10;;;17.30;99.20;;;;;;5014902;28;20041;-80
2023/08/04 02:48:46;;;;;;;4.65;1.15;;;17.30;99.00;;;;;;5014766;28;20041;-80
2023/08/04 02:51:14;;;;;;;4.53;1.00;;;17.30;98.90;;;;;;5015645;28;20119;-81
2023/08/04 02:53:43;;;;;;;2.72;1.00;;;17.30;99.10;;;;;;5015992;28;20443;-81
2023/08/04 02:56:10;;;;;;;4.65;1.35;;;17.30;98.90;;;;;;5015907;28;20447;-81
2023/08/04 02:58:36;;;;;;;5.65;1.08;;;17.20;98.90;;;;;;5014738;28;20384;-81
2023/08/04 03:01:02;;;;;;;1.33;0.73;;;17.30;99.10;;;;;;5015763;28;20057;-81
2023/08/04 03:03:28;;;;;;;2.35;0.80;;;17.30;99.30;;;;;;5014529;28;20128;-81
2023/08/04 03:05:57;;;;;;;3.80;1.00;;;17.20;99.40;;;;;;5015907;28;20423;-81
2023/08/04 03:08:23;;;;;;;1.85;0.70;;;17.20;99.60;;;;;;5015803;28;20046;-80
2023/08/04 03:10:48;;;;;;;3.53;0.85;;;17.20;99.50;;;;;;5015471;28;20042;-80
2023/08/04 03:13:14;;;;;;;3.15;0.90;;;17.20;99.50;;;;;;5015443;28;20137;-81
2023/08/04 03:15:40;;;;;;;3.90;1.05;;;17.20;99.80;;;;;;5013210;28;20050;-80
2023/08/04 03:18:05;;;;;;;3.25;1.10;;;17.20;99.80;;;;;;5016367;28;20381;-80
2023/08/04 03:20:37;;;;;;;4.60;0.90;;;17.10;99.90;;;;;;5021672;28;20107;-81
2023/08/04 03:23:04;;;;;;;2.93;0.80;;;17.10;99.90;;;;;;5014839;28;20451;-81
2023/08/04 03:25:30;;;;;;;2.58;0.82;;;17.10;99.90;;;;;;5015280;28;20288;-80
2023/08/04 03:27:55;;;;;;;4.25;1.10;;;17.10;99.70;;;;;;5014226;28;20054;-80
2023/08/04 03:30:21;;;;;;;2.10;0.90;;;17.10;99.40;;;;;;5013685;28;20126;-80
2023/08/04 03:32:47;;;;;;;5.00;1.00;;;17.00;99.20;;;;;;5015061;28;20048;-80
2023/08/04 03:35:12;;;;;;;3.15;0.90;;;17.00;99.20;;;;;;5014086;28;20407;-80
2023/08/04 03:37:39;;;;;;;3.63;0.90;;;17.00;99.20;;;;;;5013157;28;20050;-80
2023/08/04 03:40:07;;;;;;;2.28;0.80;;;17.00;99.30;;;;;;5014501;28;20053;-80
2023/08/04 03:42:37;;;;;;;2.88;0.93;;;17.00;99.40;;;;;;5013934;28;20132;-80
2023/08/04 03:45:03;;;;;;;1.70;0.70;;;17.00;99.50;;;;;;4996527;28;20399;-80
2023/08/04 03:47:29;;;;;;;4.45;0.77;;;17.00;99.70;;;;;;5013927;28;20049;-80
2023/08/04 03:49:56;;;;;;;1.98;0.70;;;16.90;99.50;;;;;;5014147;28;20042;-80
2023/08/04 03:52:21;;;;;;;3.88;0.90;;;17.00;99.40;;;;;;5013753;28;20418;-80
2023/08/04 03:54:47;;;;;;;4.03;0.85;;;16.90;99.20;;;;;;5013829;28;20041;-80
2023/08/04 03:57:13;;;;;;;1.98;0.82;;;16.90;99.20;;;;;;5014083;28;20046;-80
2023/08/04 03:59:38;;;;;;;3.65;0.90;;;16.90;99.20;;;;;;5014021;28;20117;-80
2023/08/04 04:02:04;;;;;;;3.40;0.80;;;16.90;99.40;;;;;;5013656;28;20144;-80
2023/08/04 04:04:31;;;;;;;3.95;0.77;;;16.90;99.40;;;;;;5012877;28;20392;-80
2023/08/04 04:06:56;;;;;;;1.92;0.70;;;16.90;99.60;;;;;;5013166;28;20535;-80
2023/08/04 04:09:22;;;;;;;3.15;0.80;;;16.90;99.50;;;;;;5013265;28;20137;-80
2023/08/04 04:11:47;;;;;;;2.67;1.00;;;16.90;99.50;;;;;;5013028;28;20087;-80
2023/08/04 04:14:13;;;;;;;4.10;0.88;;;16.90;99.50;;;;;;5013099;28;20043;-79
2023/08/04 04:16:38;;;;;;;2.70;0.90;;;16.90;99.70;;;;;;5013594;28;20046;-80
2023/08/04 04:19:04;;;;;;;4.95;0.90;;;16.90;99.80;;;;;;5013093;28;20034;-80
2023/08/04 04:21:30;;;;;;;2.50;0.80;;;16.90;99.80;;;;;;5013676;28;20049;-80
2023/08/04 04:23:55;;;;;;;3.33;1.00;;;16.90;99.80;;;;;;5013357;28;20064;-80
2023/08/04 04:26:21;;;;;;;3.15;1.08;;;16.90;99.80;;;;;;5012280;28;20052;-80
2023/08/04 04:28:47;;;;;;;2.42;0.80;;;16.90;99.80;;;;;;5013248;28;20034;-80
2023/08/04 04:31:12;;;;;;;2.28;0.90;;;16.90;99.60;;;;;;5013345;28;20096;-80
2023/08/04 04:33:38;;;;;;;3.60;1.00;;;16.80;99.60;;;;;;5013115;28;20042;-80
2023/08/04 04:36:04;;;;;;;2.72;0.88;;;16.90;99.60;;;;;;5011940;28;20084;-80
2023/08/04 04:38:29;;;;;;;4.40;1.35;;;16.90;99.60;;;;;;5013378;28;20510;-80
2023/08/04 04:40:56;;;;;;;5.10;1.15;;;16.90;99.80;;;;;;5012483;28;20054;-83
2023/08/04 04:43:22;;;;;;;3.33;1.05;;;16.80;99.80;;;;;;5013617;28;20049;-80
2023/08/04 04:45:48;;;;;;;1.65;0.70;;;16.80;99.90;;;;;;5013439;28;20514;-80
2023/08/04 04:48:14;;;;;;;2.25;0.98;;;16.80;99.90;;;;;;5013398;28;20069;-80
2023/08/04 04:50:40;;;;;;;3.97;1.30;;;16.80;99.90;;;;;;5014034;28;20092;-80
2023/08/04 04:53:05;;;;;;;2.22;0.82;;;16.80;99.90;;;;;;5013511;28;20042;-80
2023/08/04 04:55:31;;;;;;;2.05;0.90;;;16.80;99.90;;;;;;5013643;28;20038;-80
2023/08/04 04:57:57;;;;;;;2.45;0.93;;;16.80;99.90;;;;;;5013190;28;20049;-80
2023/08/04 05:00:22;;;;;;;2.53;0.90;;;16.80;99.90;;;;;;5012927;28;20048;-80
2023/08/04 05:02:48;;;;;;;2.38;0.93;;;16.80;99.70;;;;;;5012455;28;20038;-80
2023/08/04 05:05:14;;;;;;;4.90;1.42;;;16.80;99.90;;;;;;5013080;28;20105;-80
2023/08/04 05:07:39;;;;;;;2.10;0.90;;;16.80;99.90;;;;;;5013205;28;20038;-80
2023/08/04 05:10:05;;;;;;;3.63;1.10;;;16.80;99.90;;;;;;5013752;28;20370;-80
2023/08/04 05:12:31;;;;;;;2.95;1.20;;;16.80;99.90;;;;;;5012961;28;20038;-80
2023/08/04 05:14:56;;;;;;;3.58;1.00;;;16.80;99.90;;;;;;5013055;28;20543;-80
2023/08/04 05:17:22;;;;;;;4.32;1.55;;;16.80;99.90;;;;;;5013185;28;20049;-80
2023/08/04 05:19:48;;;;;;;4.28;1.30;;;16.80;99.90;;;;;;5013523;28;20124;-80
2023/08/04 05:22:13;;;;;;;1.88;0.90;;;16.80;99.90;;;;;;5013484;28;20080;-80
2023/08/04 05:24:39;;;;;;;2.25;1.00;;;16.80;99.90;;;;;;5013000;28;20046;-80
2023/08/04 05:27:05;;;;;;;3.58;1.30;;;16.80;99.90;;;;;;5013071;28;20038;-80
2023/08/04 05:29:31;;;;;;;5.35;1.55;;;16.80;99.90;;;;;;5011798;28;20093;-80
2023/08/04 05:31:56;;;;;;;1.77;0.95;;;16.80;99.90;;;;;;5011980;28;20528;-80
2023/08/04 05:34:22;;;;;;;5.00;1.23;;;16.80;99.90;;;;;;5011860;28;20042;-80
2023/08/04 05:36:48;;;;;;;4.00;0.93;;;16.80;99.90;;;;;;5013481;28;20095;-80
2023/08/04 05:39:13;;;;;;;3.92;1.30;;;16.80;99.90;;;;;;5012886;28;20042;-81
2023/08/04 05:41:39;;;;;;;3.28;1.05;;;16.80;99.90;;;;;;5012818;28;20388;-81
2023/08/04 05:44:04;;;;;;;2.90;1.02;;;16.80;99.90;;;;;;5012945;28;20050;-81
2023/08/04 05:46:30;;;;;;;4.28;0.85;;;16.80;99.90;;;;;;5012847;28;20056;-81
2023/08/04 05:48:56;;;;;;;2.03;1.00;;;16.80;99.90;;;;;;5012972;28;20054;-80
2023/08/04 05:51:21;;;;;;;3.65;1.40;;;16.80;99.90;;;;;;5015285;28;20133;-81
2023/08/04 05:53:47;;;;;;;2.60;1.00;;;16.80;99.90;;;;;;5016778;28;20053;-81
2023/08/04 05:56:12;;;;;;;2.78;1.10;;;16.80;99.90;;;;;;5016623;28;20048;-80
2023/08/04 05:58:38;;;;;;;3.15;1.35;;;16.90;99.90;;;;;;5015984;28;20531;-81
2023/08/04 06:01:04;;;;;;;3.45;1.10;;;16.80;99.90;;;;;;5016680;28;20038;-81
2023/08/04 06:03:29;;;;;;;2.80;1.00;;;16.80;99.90;;;;;;5015786;28;20057;-81
2023/08/04 06:05:55;;;;;;;4.10;1.40;;;16.90;99.90;;;;;;5016691;28;20048;-81
2023/08/04 06:08:21;;;;;;;5.78;1.70;;;16.90;99.90;;;;;;5015672;28;20407;-81
2023/08/04 06:10:46;;;;;;;5.28;1.42;;;16.90;99.90;;;;;;5016445;28;20050;-81
2023/08/04 06:13:12;;;;;;;3.88;1.20;;;16.90;99.90;;;;;;5016650;28;20053;-81
2023/08/04 06:15:37;;;;;;;10.18;1.95;;;16.90;99.90;;;;;;5016059;28;20125;-81
2023/08/04 06:18:03;;;;;;;6.85;2.20;;;17.00;99.90;;;;;;5016781;28;20034;-81
2023/08/04 06:20:29;;;;;;;5.70;2.10;;;17.00;99.90;;;;;;5015518;28;20049;-81
2023/08/04 06:22:54;;;;;;;6.40;2.20;;;17.00;99.90;;;;;;5015680;28;20068;-81
2023/08/04 06:25:20;;;;;;;8.70;1.73;;;17.10;99.90;;;;;;5014987;28;20042;-80
2023/08/04 06:27:46;;;;;;;6.28;1.67;;;17.00;99.90;;;;;;5014637;28;20038;-85
2023/08/04 06:30:11;;;;;;;14.85;2.50;;;17.10;99.90;;;;;;5015243;28;20038;-81
2023/08/04 06:32:37;;;;;;;10.18;2.72;;;17.10;99.90;;;;;;5014990;28;20080;-81
2023/08/04 06:35:03;;;;;;;6.00;1.63;;;17.10;99.90;;;;;;5014389;28;20087;-81
2023/08/04 06:37:28;;;;;;;9.98;2.45;;;17.10;99.90;;;;;;5015504;28;20515;-81
2023/08/04 06:39:54;;;;;;;7.15;2.28;;;17.10;99.90;;;;;;5015809;28;20491;-81
2023/08/04 06:42:20;;;;;;;7.25;1.70;;;17.20;99.90;;;;;;5016008;28;20058;-81
2023/08/04 06:44:46;;;;;;;5.82;1.80;;;17.20;99.90;;;;;;5013777;28;20049;-81
2023/08/04 06:47:12;;;;;;;6.68;1.83;;;17.20;99.90;;;;;;5015610;28;20104;-81
2023/08/04 06:49:38;;;;;;;6.78;1.67;;;17.20;99.90;;;;;;5014882;28;20053;-81
2023/08/04 06:52:04;;;;;;;7.45;2.30;;;17.20;99.90;;;;;;5016020;28;20042;-81
2023/08/04 06:54:30;;;;;;;7.78;2.20;;;17.30;99.90;;;;;;5015226;28;20124;-81
2023/08/04 06:56:56;;;;;;;8.20;2.15;;;17.30;99.90;;;;;;5014075;28;20180;-81
2023/08/04 06:59:21;;;;;;;8.88;2.10;;;17.30;99.90;;;;;;5015618;28;20034;-82
2023/08/04 07:01:47;;;;;;;4.93;1.90;;;17.30;99.90;;;;;;5013617;28;20096;-81
2023/08/04 07:04:13;;;;;;;8.63;2.25;;;17.30;99.90;;;;;;5014734;28;20517;-81
2023/08/04 07:06:38;;;;;;;7.13;1.90;;;17.40;99.90;;;;;;5015038;28;20544;-83
2023/08/04 07:09:04;;;;;;;5.15;1.60;;;17.40;99.90;;;;;;5014762;28;20116;-81
2023/08/04 07:11:29;;;;;;;5.95;1.80;;;17.40;99.90;;;;;;5014719;28;20048;-80
2023/08/04 07:13:55;;;;;;;5.18;1.90;;;17.40;99.90;;;;;;5014935;28;20606;-80
2023/08/04 07:16:21;;;;;;;6.30;1.75;;;17.50;99.90;;;;;;5014997;28;20038;-80
2023/08/04 07:18:47;;;;;;;5.30;1.63;;;17.50;99.90;;;;;;5013627;28;20308;-80
2023/08/04 07:21:13;;;;;;;6.18;1.75;;;17.50;99.90;;;;;;5014390;28;20158;-80
2023/08/04 07:23:40;;;;;;;5.35;1.50;;;17.60;99.90;;;;;;5014737;28;20128;-80
2023/08/04 07:26:07;;;;;;;8.35;1.85;;;17.60;99.90;;;;;;5015084;28;20085;-80
2023/08/04 07:28:34;;;;;;;5.10;1.80;;;17.60;99.90;;;;;;5014715;28;20137;-80
2023/08/04 07:31:04;;;;;;;6.80;1.85;;;17.70;99.90;;;;;;5013772;28;20033;-80
2023/08/04 07:33:33;;;;;;;6.20;1.83;;;17.70;99.90;;;;;;5014294;28;20046;-80
2023/08/04 07:35:59;;;;;;;5.40;1.65;;;17.70;99.90;;;;;;5016350;28;20487;-79
2023/08/04 07:38:27;;;;;;;7.93;1.80;;;17.70;99.90;;;;;;5015135;28;20045;-80
2023/08/04 07:40:53;;;;;;;6.70;1.70;;;17.80;99.90;;;;;;5014040;28;20064;-80
2023/08/04 07:43:19;;;;;;;7.43;1.90;;;17.80;99.90;;;;;;5011051;28;20047;-79
2023/08/04 07:45:45;;;;;;;7.60;2.00;;;17.90;99.90;;;;;;5015001;28;20172;-80
2023/08/04 07:48:11;;;;;;;6.75;1.90;;;17.90;99.90;;;;;;5012890;28;20558;-80
2023/08/04 07:50:41;;;;;;;5.32;1.77;;;17.90;99.90;;;;;;5012610;28;20050;-80
2023/08/04 07:53:07;;;;;;;7.65;2.03;;;17.90;99.90;;;;;;5013497;28;20108;-80
2023/08/04 07:55:34;;;;;;;4.85;1.70;;;18.00;99.90;;;;;;5013955;28;20150;-80
2023/08/04 07:58:00;;;;;;;5.25;1.35;;;18.00;99.90;;;;;;5014411;28;20042;-80
2023/08/04 08:00:29;;;;;;;5.75;1.50;;;18.10;99.90;;;;;;5013483;28;20050;-80
2023/08/04 08:02:55;;;;;;;6.40;1.52;;;18.10;99.90;;;;;;5014179;28;20050;-80
2023/08/04 08:05:20;;;;;;;5.80;1.73;;;18.10;99.90;;;;;;5014162;28;20522;-80
2023/08/04 08:07:46;;;;;;;5.80;1.42;;;18.10;99.90;;;;;;5013525;28;20053;-80
2023/08/04 08:10:12;;;;;;;6.07;1.48;;;18.10;99.90;;;;;;5013901;28;20161;-80
2023/08/04 08:12:37;;;;;;;5.30;1.63;;;18.20;99.90;;;;;;5014658;28;20448;-80
2023/08/04 08:15:06;;;;;;;4.55;1.42;;;18.20;99.90;;;;;;5013981;28;20060;-80
2023/08/04 08:17:32;;;;;;;4.97;1.30;;;18.20;99.90;;;;;;5014276;28;20108;-80
2023/08/04 08:19:58;;;;;;;5.18;1.58;;;18.20;99.90;;;;;;5012129;28;20483;-80
2023/08/04 08:22:24;;;;;;;5.45;1.20;;;18.30;99.90;;;;;;5012624;28;20052;-81
2023/08/04 08:24:56;;;;;;;3.47;1.15;;;18.30;99.90;;;;;;5011910;28;20042;-80
2023/08/04 08:27:22;;;;;;;5.10;1.63;;;18.30;99.90;;;;;;5013003;28;20073;-80
2023/08/04 08:29:54;;;;;;;4.20;1.25;;;18.30;99.90;;;;;;5012929;28;20332;-80
2023/08/04 08:32:22;;;;;;;5.78;1.63;;;18.30;99.90;;;;;;5012286;28;20491;-80
2023/08/04 08:34:50;;;;;;;4.10;1.50;;;18.30;99.90;;;;;;5020628;28;20053;-80
2023/08/04 08:37:16;;;;;;;5.13;1.45;;;18.30;99.90;;;;;;5012770;28;20125;-80
2023/08/04 08:39:41;;;;;;;4.95;1.35;;;18.30;99.90;;;;;;5013888;28;20145;-80
2023/08/04 08:42:07;;;;;;;5.03;1.60;;;18.40;99.90;;;;;;5009431;28;20120;-80
2023/08/04 08:44:32;;;;;;;3.63;1.48;;;18.30;99.90;;;;;;5013557;28;20572;-80
2023/08/04 08:46:58;;;;;;;8.18;1.73;;;18.30;99.90;;;;;;5012829;28;20404;-80
2023/08/04 08:49:27;;;;;;;5.90;1.42;;;18.30;99.90;;;;;;5012549;28;20054;-81
2023/08/04 08:51:56;;;;;;;8.55;1.75;;;18.30;99.90;;;;;;5012726;28;20046;-79
2023/08/04 08:54:22;;;;;;;5.10;1.70;;;18.40;99.90;;;;;;5013277;28;20046;-80
2023/08/04 08:56:49;;;;;;;6.68;2.13;;;18.30;99.90;;;;;;5013355;28;20088;-80
2023/08/04 08:59:15;;;;;;;6.30;1.67;;;18.40;99.90;;;;;;5012342;28;20576;-80
2023/08/04 09:01:41;;;;;;;5.90;1.60;;;18.50;99.90;;;;;;5012295;28;20121;-80
2023/08/04 09:04:07;;;;;;;7.95;2.05;;;18.50;99.90;;;;;;5014588;28;20121;-80
2023/08/04 09:06:33;;;;;;;8.48;1.80;;;18.60;99.90;;;;;;5012682;28;20402;-79
2023/08/04 09:09:01;;;;;;;5.90;1.60;;;18.60;99.90;;;;;;5012266;28;20052;-79
2023/08/04 09:11:29;;;;;;;6.57;1.58;;;18.70;99.90;;;;;;5011462;28;20503;-79
2023/08/04 09:13:55;;;;;;;5.45;1.27;;;18.80;99.90;;;;;;5012717;28;20038;-79
2023/08/04 09:16:36;;;;;;;5.70;1.40;;;18.90;99.90;;;;;;5013625;28;20042;-79
2023/08/04 09:19:07;;;;;;;10.57;1.70;;;18.90;99.90;;;;;;5013427;28;20049;-80
2023/08/04 09:21:33;;;;;;;5.95;1.30;;;19.00;99.90;;;;;;5013335;28;20042;-80
2023/08/04 09:24:01;;;;;;;6.32;1.40;;;19.00;99.90;;;;;;5013035;28;20037;-80
2023/08/04 09:26:43;;;;;;;4.63;1.20;;;19.10;99.70;;;;;;5015917;28;20053;-80
2023/08/04 09:29:09;;;;;;;4.35;1.20;;;19.10;99.20;;;;;;5017412;28;20126;-80
2023/08/04 09:31:36;;;;;;;5.22;1.27;;;19.10;99.00;;;;;;5017573;28;20196;-80
2023/08/04 09:34:04;;;;;;;5.32;1.20;;;19.20;98.90;;;;;;5017504;28;20072;-80
2023/08/04 09:36:30;;;;;;;4.35;1.27;;;19.20;98.40;;;;;;5017302;28;20053;-80
2023/08/04 09:39:04;;;;;;;7.53;1.50;;;19.20;98.10;;;;;;5017356;28;20125;-80
2023/08/04 09:41:33;;;;;;;4.68;1.10;;;19.20;98.00;;;;;;5017176;28;20085;-80
2023/08/04 09:44:04;;;;;;;5.03;1.23;;;19.30;98.00;;;;;;5016980;28;20484;-80
2023/08/04 09:46:30;;;;;;;5.70;1.40;;;19.30;98.10;;;;;;5017070;28;20045;-79
2023/08/04 09:48:59;;;;;;;4.50;1.10;;;19.30;97.90;;;;;;5017240;28;20048;-80
2023/08/04 09:51:25;;;;;;;6.30;1.48;;;19.40;98.00;;;;;;5017118;28;20049;-80
2023/08/04 09:53:54;;;;;;;4.22;1.10;;;19.40;97.50;;;;;;5016964;28;20041;-80
2023/08/04 09:56:23;;;;;;;5.97;1.30;;;19.40;97.60;;;;;;5016831;28;20052;-80
2023/08/04 09:58:49;;;;;;;5.95;1.15;;;19.40;97.60;;;;;;5015821;28;20046;-80
2023/08/04 10:01:16;;;;;;;5.72;1.30;;;19.40;97.10;;;;;;5016739;28;20452;-80
2023/08/04 10:03:53;;;;;;;4.47;1.20;;;19.40;97.10;;;;;;5016677;28;20089;-80
2023/08/04 10:06:23;;;;;;;4.35;1.00;;;19.40;97.10;;;;;;5016857;28;20124;-80
2023/08/04 10:08:50;;;;;;;6.30;1.00;;;19.50;97.00;;;;;;5015428;28;20423;-80
2023/08/04 10:11:16;;;;;;;4.40;1.00;;;19.50;96.60;;;;;;5016805;28;20129;-80
2023/08/04 10:13:48;;;;;;;4.55;1.20;;;19.50;97.10;;;;;;5016424;28;20121;-80
2023/08/04 10:16:16;;;;;;;3.95;1.02;;;19.50;96.70;;;;;;5016703;28;20054;-79
2023/08/04 10:18:59;;;;;;;9.10;1.27;;;19.60;96.70;;;;;;5016530;28;20085;-80
2023/08/04 10:21:27;;;;;;;6.70;0.98;;;19.60;96.30;;;;;;5016379;28;20495;-80
2023/08/04 10:23:54;;;;;;;5.65;1.25;;;19.70;96.60;;;;;;5016376;28;20042;-80
2023/08/04 10:26:20;;;;;;;6.50;1.35;;;19.70;96.20;;;;;;5015204;28;20096;-80
2023/08/04 10:29:03;;;;;;;5.05;1.00;;;19.70;96.10;;;;;;5016423;28;20058;-80
2023/08/04 10:31:55;;;;;;;3.15;0.90;;;19.70;95.40;;;;;;5016264;28;20054;-80
2023/08/04 10:34:32;;;;;;;5.30;1.17;;;19.70;96.30;;;;;;5016379;28;20120;-80
2023/08/04 10:37:11;;;;;;;8.32;1.50;;;19.80;96.70;;;;;;5016057;28;20050;-80
2023/08/04 10:39:45;;;;;;;5.90;1.30;;;19.80;96.90;;;;;;5016082;28;20518;-80
2023/08/04 10:42:14;;;;;;;12.45;1.70;;;19.90;96.40;;;;;;5015244;28;20416;-79
2023/08/04 10:45:03;;;;;;;4.28;1.20;;;20.00;96.20;;;;;;5016657;28;20050;-80
2023/08/04 10:47:28;;;;;;;5.95;1.30;;;20.00;96.60;;;;;;5016596;28;20423;-80
2023/08/04 10:49:55;;;;;;;6.40;1.38;;;20.00;96.60;;;;;;5015877;28;20091;-79
2023/08/04 10:52:21;;;;;;;6.78;1.35;;;20.00;96.30;;;;;;5015833;28;20061;-79
2023/08/04 10:54:47;;;;;;;4.28;1.25;;;20.00;96.30;;;;;;5015857;28;20411;-80
2023/08/04 10:57:23;;;;;;;6.10;1.30;;;20.00;97.10;;;;;;5016012;28;20050;-79
2023/08/04 10:59:50;;;;;;;8.27;1.38;;;20.00;96.90;;;;;;5015813;28;20099;-79
2023/08/04 11:02:17;;;;;;;4.53;1.20;;;20.00;96.90;;;;;;5015699;28;20045;-80
2023/08/04 11:04:44;;;;;;;4.85;1.33;;;20.00;97.00;;;;;;5014460;28;20046;-79
2023/08/04 11:07:10;;;;;;;5.72;1.45;;;20.00;97.90;;;;;;5015574;28;20042;-79
2023/08/04 11:09:36;;;;;;;5.10;1.52;;;20.00;97.90;;;;;;5015741;28;20046;-80
2023/08/04 11:12:04;;;;;;;5.88;1.48;;;20.10;98.10;;;;;;5015808;28;20081;-79
2023/08/04 11:14:30;;;;;;;9.65;1.80;;;20.10;98.00;;;;;;5015657;28;20069;-79
2023/08/04 11:17:00;;;;;;;5.90;1.83;;;20.10;97.80;;;;;;5015633;28;20088;-79
2023/08/04 11:19:27;;;;;;;5.30;1.40;;;20.20;98.20;;;;;;5015447;28;20053;-79
2023/08/04 11:21:53;;;;;;;7.35;1.40;;;20.20;98.20;;;;;;5015517;28;20054;-79
2023/08/04 11:24:23;;;;;;;4.50;1.27;;;20.20;97.70;;;;;;5015379;28;20042;-79
2023/08/04 11:26:50;;;;;;;6.22;1.45;;;20.30;98.00;;;;;;5015417;28;20054;-79
2023/08/04 11:29:17;;;;;;;7.05;1.25;;;20.30;97.90;;;;;;5015381;28;20061;-79
2023/08/04 11:31:43;;;;;;;5.65;1.35;;;20.30;97.00;;;;;;5015191;28;20107;-80
2023/08/04 11:34:13;;;;;;;6.40;1.48;;;20.40;96.60;;;;;;5015063;28;20519;-79
2023/08/04 11:36:40;;;;;;;4.35;1.40;;;20.40;96.20;;;;;;5015394;28;20551;-79
2023/08/04 11:39:05;;;;;;;5.72;1.35;;;20.40;97.10;;;;;;5015263;28;20117;-79
2023/08/04 11:41:31;;;;;;;5.82;1.33;;;20.50;97.10;;;;;;5014839;28;20085;-79
2023/08/04 11:43:59;;;;;;;4.85;1.35;;;20.50;96.70;;;;;;5014799;28;20440;-80
2023/08/04 11:46:27;;;;;;;4.20;1.02;;;20.50;96.10;;;;;;5014782;28;20530;-79
2023/08/04 11:48:52;;;;;;;6.85;1.42;;;20.50;95.60;;;;;;5014103;28;20057;-79
2023/08/04 11:51:18;;;;;;;5.50;1.20;;;20.50;96.50;;;;;;5014642;28;20046;-79
2023/08/04 11:53:45;;;;;;;5.40;1.40;;;20.50;96.20;;;;;;5014850;28;20061;-79
2023/08/04 11:56:11;;;;;;;4.53;1.13;;;20.60;96.90;;;;;;5014719;28;20096;-79
2023/08/04 11:58:43;;;;;;;5.68;1.40;;;20.60;97.30;;;;;;5014671;28;20132;-79
2023/08/04 12:01:30;;;;;;;4.57;1.10;;;20.70;97.30;;;;;;5014539;28;20525;-79
2023/08/04 12:03:55;;;;;;;3.50;1.00;;;20.70;96.50;;;;;;5014535;28;20379;-80
2023/08/04 12:06:23;;;;;;;5.72;1.30;;;20.80;96.80;;;;;;5014618;28;20117;-79
2023/08/04 12:08:52;;;;;;;9.35;1.60;;;20.80;95.70;;;;;;5014354;28;20053;-79
2023/08/04 12:11:19;;;;;;;4.32;1.00;;;20.80;94.90;;;;;;5014316;28;20135;-79
2023/08/04 12:13:45;;;;;;;6.57;1.25;;;20.80;94.60;;;;;;5014283;28;20458;-79
2023/08/04 12:16:12;;;;;;;5.47;1.40;;;20.80;94.90;;;;;;5014204;28;20180;-79
2023/08/04 12:18:39;;;;;;;4.40;1.20;;;20.80;95.60;;;;;;5014417;28;20045;-79
2023/08/04 12:21:05;;;;;;;5.95;1.20;;;20.90;96.00;;;;;;5014183;28;20046;-79
2023/08/04 12:23:31;;;;;;;5.60;1.25;;;20.90;96.80;;;;;;5014037;28;20049;-79
2023/08/04 12:25:57;;;;;;;5.00;1.30;;;21.00;96.80;;;;;;5013840;28;20049;-79
2023/08/04 12:28:22;;;;;;;5.93;1.40;;;21.00;97.10;;;;;;5013834;28;20080;-79
2023/08/04 12:30:51;;;;;;;6.18;1.25;;;21.00;96.20;;;;;;5014046;28;20436;-79
2023/08/04 12:33:16;;;;;;;6.40;1.30;;;21.00;95.30;;;;;;5014036;28;20045;-79
2023/08/04 12:35:42;;;;;;;6.07;1.20;;;21.00;95.70;;;;;;5013888;28;20038;-78
2023/08/04 12:38:07;;;;;;;5.45;1.20;;;21.00;95.10;;;;;;5013868;28;20520;-79
2023/08/04 12:40:34;;;;;;;3.35;0.95;;;21.00;95.00;;;;;;5013738;28;20481;-79
2023/08/04 12:43:00;;;;;;;6.55;1.45;;;21.00;95.80;;;;;;5013529;28;20054;-79
2023/08/04 12:45:26;;;;;;;7.15;1.20;;;21.00;95.30;;;;;;5013798;28;20038;-79